sensor_id;sensor_type;location;lat;lon;timestamp;P1;durP1;ratioP1;P2;durP2;ratioP2
58071;SDS011;60383;46.626;18.866;2023-08-07T00:02:06;0.43;;;0.40;;
58071;SDS011;60383;46.626;18.866;2023-08-07T00:04:32;0.47;;;0.35;;
58071;SDS011;60383;46.626;18.866;2023-08-07T00:06:57;0.20;;;0.20;;
58071;SDS011;60383;46.626;18.866;2023-08-07T00:09:23;0.35;;;0.35;;
58071;SDS011;60383;46.626;18.866;2023-08-07T00:11:48;0.30;;;0.30;;
58071;SDS011;60383;46.626;18.866;2023-08-07T00:14:14;0.40;;;0.40;;
58071;SDS011;60383;46.626;18.866;2023-08-07T00:16:41;0.20;;;0.20;;
58071;SDS011;60383;46.626;18.866;2023-08-07T00:19:06;0.30;;;0.30;;
58071;SDS011;60383;46.626;18.866;2023-08-07T00:21:32;1.45;;;0.40;;
58071;SDS011;60383;46.626;18.866;2023-08-07T00:23:57;0.40;;;0.40;;
58071;SDS011;60383;46.626;18.866;2023-08-07T00:26:23;0.60;;;0.50;;
58071;SDS011;60383;46.626;18.866;2023-08-07T00:28:48;0.55;;;0.40;;
58071;SDS011;60383;46.626;18.866;2023-08-07T00:31:13;0.30;;;0.30;;
58071;SDS011;60383;46.626;18.866;2023-08-07T00:33:39;0.40;;;0.40;;
58071;SDS011;60383;46.626;18.866;2023-08-07T00:36:05;0.75;;;0.50;;
58071;SDS011;60383;46.626;18.866;2023-08-07T00:38:30;0.22;;;0.22;;
58071;SDS011;60383;46.626;18.866;2023-08-07T00:40:55;0.50;;;0.50;;
58071;SDS011;60383;46.626;18.866;2023-08-07T00:43:21;0.40;;;0.30;;
58071;SDS011;60383;46.626;18.866;2023-08-07T00:45:47;0.50;;;0.50;;
58071;SDS011;60383;46.626;18.866;2023-08-07T00:48:13;0.77;;;0.30;;
58071;SDS011;60383;46.626;18.866;2023-08-07T00:50:40;0.30;;;0.20;;
58071;SDS011;60383;46.626;18.866;2023-08-07T00:53:07;0.40;;;0.40;;
58071;SDS011;60383;46.626;18.866;2023-08-07T00:55:33;0.40;;;0.40;;
58071;SDS011;60383;46.626;18.866;2023-08-07T00:58:00;1.85;;;0.43;;
58071;SDS011;60383;46.626;18.866;2023-08-07T01:00:26;0.40;;;0.40;;
58071;SDS011;60383;46.626;18.866;2023-08-07T01:02:54;0.38;;;0.38;;
58071;SDS011;60383;46.626;18.866;2023-08-07T01:05:21;1.05;;;0.30;;
58071;SDS011;60383;46.626;18.866;2023-08-07T01:07:49;0.32;;;0.32;;
58071;SDS011;60383;46.626;18.866;2023-08-07T01:10:19;0.40;;;0.40;;
58071;SDS011;60383;46.626;18.866;2023-08-07T01:13:10;0.85;;;0.50;;
58071;SDS011;60383;46.626;18.866;2023-08-07T01:15:46;0.43;;;0.40;;
58071;SDS011;60383;46.626;18.866;2023-08-07T01:18:15;1.45;;;0.38;;
58071;SDS011;60383;46.626;18.866;2023-08-07T01:20:41;0.98;;;0.43;;
58071;SDS011;60383;46.626;18.866;2023-08-07T01:23:07;0.50;;;0.30;;
58071;SDS011;60383;46.626;18.866;2023-08-07T01:25:32;0.50;;;0.50;;
58071;SDS011;60383;46.626;18.866;2023-08-07T01:30:42;0.35;;;0.35;;
58071;SDS011;60383;46.626;18.866;2023-08-07T01:33:34;0.73;;;0.40;;
58071;SDS011;60383;46.626;18.866;2023-08-07T01:36:12;0.63;;;0.40;;
58071;SDS011;60383;46.626;18.866;2023-08-07T01:38:38;1.35;;;0.40;;
58071;SDS011;60383;46.626;18.866;2023-08-07T01:41:05;0.60;;;0.40;;
58071;SDS011;60383;46.626;18.866;2023-08-07T01:43:31;0.77;;;0.43;;
58071;SDS011;60383;46.626;18.866;2023-08-07T01:45:57;0.50;;;0.50;;
58071;SDS011;60383;46.626;18.866;2023-08-07T01:48:23;0.47;;;0.40;;
58071;SDS011;60383;46.626;18.866;2023-08-07T01:50:49;0.35;;;0.35;;
58071;SDS011;60383;46.626;18.866;2023-08-07T01:53:14;0.30;;;0.30;;
58071;SDS011;60383;46.626;18.866;2023-08-07T01:55:40;0.68;;;0.43;;
58071;SDS011;60383;46.626;18.866;2023-08-07T01:58:05;0.52;;;0.30;;
58071;SDS011;60383;46.626;18.866;2023-08-07T02:00:31;1.33;;;0.30;;
58071;SDS011;60383;46.626;18.866;2023-08-07T02:02:57;0.45;;;0.45;;
58071;SDS011;60383;46.626;18.866;2023-08-07T02:05:22;0.30;;;0.30;;
58071;SDS011;60383;46.626;18.866;2023-08-07T02:07:48;0.60;;;0.40;;
58071;SDS011;60383;46.626;18.866;2023-08-07T02:10:13;0.30;;;0.30;;
58071;SDS011;60383;46.626;18.866;2023-08-07T02:12:38;0.40;;;0.40;;
58071;SDS011;60383;46.626;18.866;2023-08-07T02:15:04;1.48;;;0.40;;
58071;SDS011;60383;46.626;18.866;2023-08-07T02:17:30;0.70;;;0.30;;
58071;SDS011;60383;46.626;18.866;2023-08-07T02:19:56;0.30;;;0.30;;
58071;SDS011;60383;46.626;18.866;2023-08-07T02:22:22;0.40;;;0.40;;
58071;SDS011;60383;46.626;18.866;2023-08-07T02:24:48;0.35;;;0.30;;
58071;SDS011;60383;46.626;18.866;2023-08-07T02:27:13;0.55;;;0.35;;
58071;SDS011;60383;46.626;18.866;2023-08-07T02:29:39;0.28;;;0.28;;
58071;SDS011;60383;46.626;18.866;2023-08-07T02:32:05;1.20;;;0.40;;
58071;SDS011;60383;46.626;18.866;2023-08-07T02:34:31;0.30;;;0.30;;
58071;SDS011;60383;46.626;18.866;2023-08-07T02:36:57;0.50;;;0.50;;
58071;SDS011;60383;46.626;18.866;2023-08-07T02:39:24;0.47;;;0.30;;
58071;SDS011;60383;46.626;18.866;2023-08-07T02:41:49;0.40;;;0.40;;
58071;SDS011;60383;46.626;18.866;2023-08-07T02:44:15;1.02;;;0.40;;
58071;SDS011;60383;46.626;18.866;2023-08-07T02:46:42;0.47;;;0.30;;
58071;SDS011;60383;46.626;18.866;2023-08-07T02:49:08;0.98;;;0.40;;
58071;SDS011;60383;46.626;18.866;2023-08-07T02:51:33;0.85;;;0.50;;
58071;SDS011;60383;46.626;18.866;2023-08-07T02:53:58;0.57;;;0.57;;
58071;SDS011;60383;46.626;18.866;2023-08-07T02:56:24;0.30;;;0.30;;
58071;SDS011;60383;46.626;18.866;2023-08-07T02:58:49;0.60;;;0.60;;
58071;SDS011;60383;46.626;18.866;2023-08-07T03:01:15;1.38;;;0.40;;
58071;SDS011;60383;46.626;18.866;2023-08-07T03:03:40;0.55;;;0.50;;
58071;SDS011;60383;46.626;18.866;2023-08-07T03:06:06;0.20;;;0.20;;
58071;SDS011;60383;46.626;18.866;2023-08-07T03:08:31;0.50;;;0.50;;
58071;SDS011;60383;46.626;18.866;2023-08-07T03:10:57;1.60;;;0.45;;
58071;SDS011;60383;46.626;18.866;2023-08-07T03:13:24;1.08;;;0.52;;
58071;SDS011;60383;46.626;18.866;2023-08-07T03:15:50;0.30;;;0.30;;
58071;SDS011;60383;46.626;18.866;2023-08-07T03:18:23;0.85;;;0.40;;
58071;SDS011;60383;46.626;18.866;2023-08-07T03:20:49;0.38;;;0.32;;
58071;SDS011;60383;46.626;18.866;2023-08-07T03:23:14;0.40;;;0.30;;
58071;SDS011;60383;46.626;18.866;2023-08-07T03:25:40;0.38;;;0.38;;
58071;SDS011;60383;46.626;18.866;2023-08-07T03:28:05;0.38;;;0.30;;
58071;SDS011;60383;46.626;18.866;2023-08-07T03:30:31;0.50;;;0.50;;
58071;SDS011;60383;46.626;18.866;2023-08-07T03:32:56;1.13;;;0.70;;
58071;SDS011;60383;46.626;18.866;2023-08-07T03:35:21;0.60;;;0.55;;
58071;SDS011;60383;46.626;18.866;2023-08-07T03:37:47;0.50;;;0.50;;
58071;SDS011;60383;46.626;18.866;2023-08-07T03:40:12;0.50;;;0.50;;
58071;SDS011;60383;46.626;18.866;2023-08-07T03:42:38;0.82;;;0.47;;
58071;SDS011;60383;46.626;18.866;2023-08-07T03:45:03;0.90;;;0.55;;
58071;SDS011;60383;46.626;18.866;2023-08-07T03:47:29;1.17;;;0.60;;
58071;SDS011;60383;46.626;18.866;2023-08-07T03:49:55;0.43;;;0.40;;
58071;SDS011;60383;46.626;18.866;2023-08-07T03:52:20;0.47;;;0.47;;
58071;SDS011;60383;46.626;18.866;2023-08-07T03:54:46;0.70;;;0.60;;
58071;SDS011;60383;46.626;18.866;2023-08-07T03:57:11;0.50;;;0.50;;
58071;SDS011;60383;46.626;18.866;2023-08-07T03:59:37;0.57;;;0.50;;
58071;SDS011;60383;46.626;18.866;2023-08-07T04:02:02;0.65;;;0.50;;
58071;SDS011;60383;46.626;18.866;2023-08-07T04:04:28;1.15;;;0.30;;
58071;SDS011;60383;46.626;18.866;2023-08-07T04:06:53;0.40;;;0.40;;
58071;SDS011;60383;46.626;18.866;2023-08-07T04:09:19;0.60;;;0.47;;
58071;SDS011;60383;46.626;18.866;2023-08-07T04:11:44;0.52;;;0.45;;
58071;SDS011;60383;46.626;18.866;2023-08-07T04:14:10;0.40;;;0.40;;
58071;SDS011;60383;46.626;18.866;2023-08-07T04:16:36;0.40;;;0.40;;
58071;SDS011;60383;46.626;18.866;2023-08-07T04:19:02;0.50;;;0.40;;
58071;SDS011;60383;46.626;18.866;2023-08-07T04:21:28;0.57;;;0.57;;
58071;SDS011;60383;46.626;18.866;2023-08-07T04:23:53;0.65;;;0.43;;
58071;SDS011;60383;46.626;18.866;2023-08-07T04:26:19;0.47;;;0.47;;
58071;SDS011;60383;46.626;18.866;2023-08-07T04:28:44;0.40;;;0.40;;
58071;SDS011;60383;46.626;18.866;2023-08-07T04:31:10;0.68;;;0.43;;
58071;SDS011;60383;46.626;18.866;2023-08-07T04:33:35;0.47;;;0.40;;
58071;SDS011;60383;46.626;18.866;2023-08-07T04:36:01;0.60;;;0.40;;
58071;SDS011;60383;46.626;18.866;2023-08-07T04:38:26;0.45;;;0.43;;
58071;SDS011;60383;46.626;18.866;2023-08-07T04:40:52;1.02;;;0.40;;
58071;SDS011;60383;46.626;18.866;2023-08-07T04:43:18;0.50;;;0.50;;
58071;SDS011;60383;46.626;18.866;2023-08-07T04:45:47;0.85;;;0.75;;
58071;SDS011;60383;46.626;18.866;2023-08-07T04:48:13;0.60;;;0.60;;
58071;SDS011;60383;46.626;18.866;2023-08-07T04:50:39;0.68;;;0.50;;
58071;SDS011;60383;46.626;18.866;2023-08-07T04:53:05;0.80;;;0.40;;
58071;SDS011;60383;46.626;18.866;2023-08-07T04:55:30;0.47;;;0.40;;
58071;SDS011;60383;46.626;18.866;2023-08-07T04:57:57;1.10;;;0.70;;
58071;SDS011;60383;46.626;18.866;2023-08-07T05:00:22;1.52;;;0.65;;
58071;SDS011;60383;46.626;18.866;2023-08-07T05:02:49;1.02;;;0.50;;
58071;SDS011;60383;46.626;18.866;2023-08-07T05:05:15;0.50;;;0.40;;
58071;SDS011;60383;46.626;18.866;2023-08-07T05:07:41;0.75;;;0.55;;
58071;SDS011;60383;46.626;18.866;2023-08-07T05:10:07;0.88;;;0.45;;
58071;SDS011;60383;46.626;18.866;2023-08-07T05:12:33;0.73;;;0.43;;
58071;SDS011;60383;46.626;18.866;2023-08-07T05:14:58;0.47;;;0.47;;
58071;SDS011;60383;46.626;18.866;2023-08-07T05:17:24;0.40;;;0.40;;
58071;SDS011;60383;46.626;18.866;2023-08-07T05:19:49;0.40;;;0.40;;
58071;SDS011;60383;46.626;18.866;2023-08-07T05:22:15;0.95;;;0.38;;
58071;SDS011;60383;46.626;18.866;2023-08-07T05:24:40;1.48;;;0.38;;
58071;SDS011;60383;46.626;18.866;2023-08-07T05:27:07;0.70;;;0.50;;
58071;SDS011;60383;46.626;18.866;2023-08-07T05:29:36;0.68;;;0.45;;
58071;SDS011;60383;46.626;18.866;2023-08-07T05:32:08;1.65;;;0.50;;
58071;SDS011;60383;46.626;18.866;2023-08-07T05:34:35;0.70;;;0.45;;
58071;SDS011;60383;46.626;18.866;2023-08-07T05:37:01;0.50;;;0.50;;
58071;SDS011;60383;46.626;18.866;2023-08-07T05:39:26;0.88;;;0.40;;
58071;SDS011;60383;46.626;18.866;2023-08-07T05:41:52;0.43;;;0.40;;
58071;SDS011;60383;46.626;18.866;2023-08-07T05:44:19;0.60;;;0.40;;
58071;SDS011;60383;46.626;18.866;2023-08-07T05:46:45;1.00;;;0.85;;
58071;SDS011;60383;46.626;18.866;2023-08-07T05:49:10;1.02;;;0.52;;
58071;SDS011;60383;46.626;18.866;2023-08-07T05:51:37;0.52;;;0.40;;
58071;SDS011;60383;46.626;18.866;2023-08-07T05:54:02;0.40;;;0.40;;
58071;SDS011;60383;46.626;18.866;2023-08-07T05:56:28;0.80;;;0.50;;
58071;SDS011;60383;46.626;18.866;2023-08-07T05:58:53;0.80;;;0.40;;
58071;SDS011;60383;46.626;18.866;2023-08-07T06:01:19;0.70;;;0.40;;
58071;SDS011;60383;46.626;18.866;2023-08-07T06:03:44;0.40;;;0.40;;
58071;SDS011;60383;46.626;18.866;2023-08-07T06:06:10;0.50;;;0.47;;
58071;SDS011;60383;46.626;18.866;2023-08-07T06:08:35;0.47;;;0.47;;
58071;SDS011;60383;46.626;18.866;2023-08-07T06:11:01;0.73;;;0.40;;
58071;SDS011;60383;46.626;18.866;2023-08-07T06:13:30;0.57;;;0.50;;
58071;SDS011;60383;46.626;18.866;2023-08-07T06:15:56;0.40;;;0.40;;
58071;SDS011;60383;46.626;18.866;2023-08-07T06:18:22;0.30;;;0.30;;
58071;SDS011;60383;46.626;18.866;2023-08-07T06:20:47;0.63;;;0.55;;
58071;SDS011;60383;46.626;18.866;2023-08-07T06:23:13;1.02;;;0.50;;
58071;SDS011;60383;46.626;18.866;2023-08-07T06:25:38;0.30;;;0.30;;
58071;SDS011;60383;46.626;18.866;2023-08-07T06:28:04;0.77;;;0.60;;
58071;SDS011;60383;46.626;18.866;2023-08-07T06:30:30;1.38;;;0.50;;
58071;SDS011;60383;46.626;18.866;2023-08-07T06:32:56;0.52;;;0.52;;
58071;SDS011;60383;46.626;18.866;2023-08-07T06:35:22;0.68;;;0.50;;
58071;SDS011;60383;46.626;18.866;2023-08-07T06:37:47;0.50;;;0.50;;
58071;SDS011;60383;46.626;18.866;2023-08-07T06:40:13;0.47;;;0.40;;
58071;SDS011;60383;46.626;18.866;2023-08-07T06:42:39;1.27;;;0.40;;
58071;SDS011;60383;46.626;18.866;2023-08-07T06:45:05;0.30;;;0.30;;
58071;SDS011;60383;46.626;18.866;2023-08-07T06:47:31;1.48;;;0.40;;
58071;SDS011;60383;46.626;18.866;2023-08-07T06:49:57;0.40;;;0.40;;
58071;SDS011;60383;46.626;18.866;2023-08-07T06:52:22;0.28;;;0.28;;
58071;SDS011;60383;46.626;18.866;2023-08-07T06:54:48;0.55;;;0.25;;
58071;SDS011;60383;46.626;18.866;2023-08-07T06:57:13;0.30;;;0.30;;
58071;SDS011;60383;46.626;18.866;2023-08-07T06:59:39;0.40;;;0.35;;
58071;SDS011;60383;46.626;18.866;2023-08-07T07:02:05;0.30;;;0.30;;
58071;SDS011;60383;46.626;18.866;2023-08-07T07:04:30;0.35;;;0.35;;
58071;SDS011;60383;46.626;18.866;2023-08-07T07:06:56;0.90;;;0.32;;
58071;SDS011;60383;46.626;18.866;2023-08-07T07:09:22;0.22;;;0.22;;
58071;SDS011;60383;46.626;18.866;2023-08-07T07:11:47;0.20;;;0.20;;
58071;SDS011;60383;46.626;18.866;2023-08-07T07:14:13;0.93;;;0.40;;
58071;SDS011;60383;46.626;18.866;2023-08-07T07:16:38;0.55;;;0.38;;
58071;SDS011;60383;46.626;18.866;2023-08-07T07:19:04;0.30;;;0.30;;
58071;SDS011;60383;46.626;18.866;2023-08-07T07:21:33;0.30;;;0.30;;
58071;SDS011;60383;46.626;18.866;2023-08-07T07:23:59;1.25;;;0.50;;
58071;SDS011;60383;46.626;18.866;2023-08-07T07:26:25;0.30;;;0.30;;
58071;SDS011;60383;46.626;18.866;2023-08-07T07:28:50;0.82;;;0.30;;
58071;SDS011;60383;46.626;18.866;2023-08-07T07:31:16;0.20;;;0.20;;
58071;SDS011;60383;46.626;18.866;2023-08-07T07:33:42;0.50;;;0.40;;
58071;SDS011;60383;46.626;18.866;2023-08-07T07:36:07;0.32;;;0.30;;
58071;SDS011;60383;46.626;18.866;2023-08-07T07:38:39;1.27;;;0.35;;
58071;SDS011;60383;46.626;18.866;2023-08-07T07:41:05;0.20;;;0.20;;
58071;SDS011;60383;46.626;18.866;2023-08-07T07:43:34;0.20;;;0.20;;
58071;SDS011;60383;46.626;18.866;2023-08-07T07:46:00;0.20;;;0.20;;
58071;SDS011;60383;46.626;18.866;2023-08-07T07:48:25;0.28;;;0.28;;
58071;SDS011;60383;46.626;18.866;2023-08-07T07:50:51;0.20;;;0.20;;
58071;SDS011;60383;46.626;18.866;2023-08-07T07:53:18;0.20;;;0.20;;
58071;SDS011;60383;46.626;18.866;2023-08-07T07:55:46;0.30;;;0.30;;
58071;SDS011;60383;46.626;18.866;2023-08-07T07:58:13;0.20;;;0.20;;
58071;SDS011;60383;46.626;18.866;2023-08-07T08:00:38;0.20;;;0.20;;
58071;SDS011;60383;46.626;18.866;2023-08-07T08:03:04;0.52;;;0.30;;
58071;SDS011;60383;46.626;18.866;2023-08-07T08:05:29;0.55;;;0.20;;
58071;SDS011;60383;46.626;18.866;2023-08-07T08:07:54;0.20;;;0.20;;
58071;SDS011;60383;46.626;18.866;2023-08-07T08:10:20;0.20;;;0.20;;
58071;SDS011;60383;46.626;18.866;2023-08-07T08:12:45;0.22;;;0.22;;
58071;SDS011;60383;46.626;18.866;2023-08-07T08:15:11;0.82;;;0.30;;
58071;SDS011;60383;46.626;18.866;2023-08-07T08:17:36;0.28;;;0.28;;
58071;SDS011;60383;46.626;18.866;2023-08-07T08:20:05;1.05;;;0.47;;
58071;SDS011;60383;46.626;18.866;2023-08-07T08:22:32;0.30;;;0.30;;
58071;SDS011;60383;46.626;18.866;2023-08-07T08:24:58;0.40;;;0.30;;
58071;SDS011;60383;46.626;18.866;2023-08-07T08:27:23;0.20;;;0.20;;
58071;SDS011;60383;46.626;18.866;2023-08-07T08:29:50;0.38;;;0.30;;
58071;SDS011;60383;46.626;18.866;2023-08-07T08:32:15;0.20;;;0.20;;
58071;SDS011;60383;46.626;18.866;2023-08-07T08:34:41;0.20;;;0.20;;
58071;SDS011;60383;46.626;18.866;2023-08-07T08:37:06;0.22;;;0.20;;
58071;SDS011;60383;46.626;18.866;2023-08-07T08:39:32;1.40;;;0.20;;
58071;SDS011;60383;46.626;18.866;2023-08-07T08:41:58;0.10;;;0.10;;
58071;SDS011;60383;46.626;18.866;2023-08-07T08:44:24;0.20;;;0.20;;
58071;SDS011;60383;46.626;18.866;2023-08-07T08:46:55;0.22;;;0.22;;
58071;SDS011;60383;46.626;18.866;2023-08-07T08:49:27;0.40;;;0.20;;
58071;SDS011;60383;46.626;18.866;2023-08-07T08:51:57;0.20;;;0.20;;
58071;SDS011;60383;46.626;18.866;2023-08-07T08:54:24;1.75;;;0.28;;
58071;SDS011;60383;46.626;18.866;2023-08-07T08:56:51;0.20;;;0.20;;
58071;SDS011;60383;46.626;18.866;2023-08-07T08:59:20;0.20;;;0.20;;
58071;SDS011;60383;46.626;18.866;2023-08-07T09:01:46;0.20;;;0.20;;
58071;SDS011;60383;46.626;18.866;2023-08-07T09:04:15;0.28;;;0.20;;
58071;SDS011;60383;46.626;18.866;2023-08-07T09:06:41;0.20;;;0.20;;
58071;SDS011;60383;46.626;18.866;2023-08-07T09:09:07;0.38;;;0.28;;
58071;SDS011;60383;46.626;18.866;2023-08-07T09:11:34;0.20;;;0.20;;
58071;SDS011;60383;46.626;18.866;2023-08-07T09:14:01;0.20;;;0.20;;
58071;SDS011;60383;46.626;18.866;2023-08-07T09:16:28;0.13;;;0.13;;
58071;SDS011;60383;46.626;18.866;2023-08-07T09:18:55;0.30;;;0.30;;
58071;SDS011;60383;46.626;18.866;2023-08-07T09:21:21;0.30;;;0.30;;
58071;SDS011;60383;46.626;18.866;2023-08-07T09:23:46;0.40;;;0.20;;
58071;SDS011;60383;46.626;18.866;2023-08-07T09:26:12;0.20;;;0.20;;
58071;SDS011;60383;46.626;18.866;2023-08-07T09:28:37;0.20;;;0.20;;
58071;SDS011;60383;46.626;18.866;2023-08-07T09:31:05;0.20;;;0.20;;
58071;SDS011;60383;46.626;18.866;2023-08-07T09:33:33;2.28;;;0.30;;
58071;SDS011;60383;46.626;18.866;2023-08-07T09:35:59;0.55;;;0.20;;
58071;SDS011;60383;46.626;18.866;2023-08-07T09:38:29;0.30;;;0.20;;
58071;SDS011;60383;46.626;18.866;2023-08-07T09:40:58;0.20;;;0.20;;
58071;SDS011;60383;46.626;18.866;2023-08-07T09:43:24;1.15;;;0.20;;
58071;SDS011;60383;46.626;18.866;2023-08-07T09:45:49;0.20;;;0.20;;
58071;SDS011;60383;46.626;18.866;2023-08-07T09:48:22;0.20;;;0.20;;
58071;SDS011;60383;46.626;18.866;2023-08-07T09:50:50;0.10;;;0.10;;
58071;SDS011;60383;46.626;18.866;2023-08-07T09:53:15;0.30;;;0.20;;
58071;SDS011;60383;46.626;18.866;2023-08-07T09:55:41;0.30;;;0.30;;
58071;SDS011;60383;46.626;18.866;2023-08-07T09:58:08;1.38;;;0.30;;
58071;SDS011;60383;46.626;18.866;2023-08-07T10:00:37;0.20;;;0.20;;
58071;SDS011;60383;46.626;18.866;2023-08-07T10:03:02;0.10;;;0.10;;
58071;SDS011;60383;46.626;18.866;2023-08-07T10:05:29;0.10;;;0.10;;
58071;SDS011;60383;46.626;18.866;2023-08-07T10:07:55;0.10;;;0.10;;
58071;SDS011;60383;46.626;18.866;2023-08-07T10:10:22;1.33;;;0.20;;
58071;SDS011;60383;46.626;18.866;2023-08-07T10:12:50;1.00;;;0.30;;
58071;SDS011;60383;46.626;18.866;2023-08-07T10:15:17;0.30;;;0.30;;
58071;SDS011;60383;46.626;18.866;2023-08-07T10:17:44;0.65;;;0.40;;
58071;SDS011;60383;46.626;18.866;2023-08-07T10:20:10;4.85;;;0.43;;
58071;SDS011;60383;46.626;18.866;2023-08-07T10:22:37;0.15;;;0.15;;
58071;SDS011;60383;46.626;18.866;2023-08-07T10:25:03;0.30;;;0.30;;
58071;SDS011;60383;46.626;18.866;2023-08-07T10:27:32;0.30;;;0.30;;
58071;SDS011;60383;46.626;18.866;2023-08-07T10:30:00;0.30;;;0.20;;
58071;SDS011;60383;46.626;18.866;2023-08-07T10:32:27;0.43;;;0.20;;
58071;SDS011;60383;46.626;18.866;2023-08-07T10:34:54;2.55;;;0.30;;
58071;SDS011;60383;46.626;18.866;2023-08-07T10:38:04;0.08;;;0.08;;
58071;SDS011;60383;46.626;18.866;2023-08-07T10:40:10;0.32;;;0.20;;
58071;SDS011;60383;46.626;18.866;2023-08-07T10:42:55;0.90;;;0.10;;
58071;SDS011;60383;46.626;18.866;2023-08-07T10:45:21;0.10;;;0.10;;
58071;SDS011;60383;46.626;18.866;2023-08-07T10:50:51;0.40;;;0.20;;
58071;SDS011;60383;46.626;18.866;2023-08-07T10:54:05;0.30;;;0.30;;
58071;SDS011;60383;46.626;18.866;2023-08-07T10:56:18;0.10;;;0.10;;
58071;SDS011;60383;46.626;18.866;2023-08-07T10:58:54;0.10;;;0.10;;
58071;SDS011;60383;46.626;18.866;2023-08-07T11:03:55;0.10;;;0.10;;
58071;SDS011;60383;46.626;18.866;2023-08-07T11:06:29;0.10;;;0.10;;
58071;SDS011;60383;46.626;18.866;2023-08-07T11:08:59;0.10;;;0.10;;
58071;SDS011;60383;46.626;18.866;2023-08-07T11:11:38;0.10;;;0.10;;
58071;SDS011;60383;46.626;18.866;2023-08-07T11:14:05;0.10;;;0.10;;
58071;SDS011;60383;46.626;18.866;2023-08-07T11:16:32;0.20;;;0.20;;
58071;SDS011;60383;46.626;18.866;2023-08-07T11:18:58;0.10;;;0.10;;
58071;SDS011;60383;46.626;18.866;2023-08-07T11:21:25;0.08;;;0.08;;
58071;SDS011;60383;46.626;18.866;2023-08-07T11:23:50;0.10;;;0.10;;
58071;SDS011;60383;46.626;18.866;2023-08-07T11:26:16;0.20;;;0.20;;
58071;SDS011;60383;46.626;18.866;2023-08-07T11:28:42;2.47;;;0.20;;
58071;SDS011;60383;46.626;18.866;2023-08-07T11:31:08;0.20;;;0.20;;
58071;SDS011;60383;46.626;18.866;2023-08-07T11:33:35;0.32;;;0.30;;
58071;SDS011;60383;46.626;18.866;2023-08-07T11:36:01;0.25;;;0.25;;
58071;SDS011;60383;46.626;18.866;2023-08-07T11:38:30;1.20;;;0.40;;
58071;SDS011;60383;46.626;18.866;2023-08-07T11:41:01;0.20;;;0.20;;
58071;SDS011;60383;46.626;18.866;2023-08-07T11:43:28;0.43;;;0.20;;
58071;SDS011;60383;46.626;18.866;2023-08-07T11:45:55;0.40;;;0.20;;
58071;SDS011;60383;46.626;18.866;2023-08-07T11:48:25;0.45;;;0.30;;
58071;SDS011;60383;46.626;18.866;2023-08-07T11:50:53;0.10;;;0.10;;
58071;SDS011;60383;46.626;18.866;2023-08-07T11:53:22;0.20;;;0.20;;
58071;SDS011;60383;46.626;18.866;2023-08-07T11:55:52;0.35;;;0.28;;
58071;SDS011;60383;46.626;18.866;2023-08-07T11:58:22;0.20;;;0.20;;
58071;SDS011;60383;46.626;18.866;2023-08-07T12:00:49;0.20;;;0.10;;
58071;SDS011;60383;46.626;18.866;2023-08-07T12:03:28;0.15;;;0.15;;
58071;SDS011;60383;46.626;18.866;2023-08-07T12:05:55;0.22;;;0.22;;
58071;SDS011;60383;46.626;18.866;2023-08-07T12:08:22;0.13;;;0.10;;
58071;SDS011;60383;46.626;18.866;2023-08-07T12:10:51;0.20;;;0.20;;
58071;SDS011;60383;46.626;18.866;2023-08-07T12:13:24;0.35;;;0.20;;
58071;SDS011;60383;46.626;18.866;2023-08-07T12:15:54;0.20;;;0.20;;
58071;SDS011;60383;46.626;18.866;2023-08-07T12:18:21;0.20;;;0.20;;
58071;SDS011;60383;46.626;18.866;2023-08-07T12:20:50;0.65;;;0.20;;
58071;SDS011;60383;46.626;18.866;2023-08-07T12:23:17;0.10;;;0.10;;
58071;SDS011;60383;46.626;18.866;2023-08-07T12:25:43;0.68;;;0.20;;
58071;SDS011;60383;46.626;18.866;2023-08-07T12:28:09;0.22;;;0.22;;
58071;SDS011;60383;46.626;18.866;2023-08-07T12:30:36;0.10;;;0.10;;
58071;SDS011;60383;46.626;18.866;2023-08-07T12:33:01;0.10;;;0.10;;
58071;SDS011;60383;46.626;18.866;2023-08-07T12:35:31;0.10;;;0.10;;
58071;SDS011;60383;46.626;18.866;2023-08-07T12:37:57;0.20;;;0.20;;
58071;SDS011;60383;46.626;18.866;2023-08-07T12:40:22;0.20;;;0.20;;
58071;SDS011;60383;46.626;18.866;2023-08-07T12:42:51;0.10;;;0.10;;
58071;SDS011;60383;46.626;18.866;2023-08-07T12:45:17;0.17;;;0.10;;
58071;SDS011;60383;46.626;18.866;2023-08-07T12:47:44;0.22;;;0.20;;
58071;SDS011;60383;46.626;18.866;2023-08-07T12:50:09;0.35;;;0.20;;
58071;SDS011;60383;46.626;18.866;2023-08-07T12:52:35;0.10;;;0.10;;
58071;SDS011;60383;46.626;18.866;2023-08-07T12:55:00;0.80;;;0.17;;
58071;SDS011;60383;46.626;18.866;2023-08-07T12:57:26;0.17;;;0.15;;
58071;SDS011;60383;46.626;18.866;2023-08-07T12:59:52;0.20;;;0.10;;
58071;SDS011;60383;46.626;18.866;2023-08-07T13:02:17;0.10;;;0.10;;
58071;SDS011;60383;46.626;18.866;2023-08-07T13:04:43;0.47;;;0.20;;
58071;SDS011;60383;46.626;18.866;2023-08-07T13:07:09;0.50;;;0.20;;
58071;SDS011;60383;46.626;18.866;2023-08-07T13:09:34;0.10;;;0.10;;
58071;SDS011;60383;46.626;18.866;2023-08-07T13:12:00;0.63;;;0.10;;
58071;SDS011;60383;46.626;18.866;2023-08-07T13:14:25;0.20;;;0.20;;
58071;SDS011;60383;46.626;18.866;2023-08-07T13:16:51;0.10;;;0.10;;
58071;SDS011;60383;46.626;18.866;2023-08-07T13:19:16;0.10;;;0.10;;
58071;SDS011;60383;46.626;18.866;2023-08-07T13:21:42;0.10;;;0.10;;
58071;SDS011;60383;46.626;18.866;2023-08-07T13:24:07;0.10;;;0.10;;
58071;SDS011;60383;46.626;18.866;2023-08-07T13:26:33;0.20;;;0.10;;
58071;SDS011;60383;46.626;18.866;2023-08-07T13:28:58;1.23;;;0.30;;
58071;SDS011;60383;46.626;18.866;2023-08-07T13:31:24;0.52;;;0.20;;
58071;SDS011;60383;46.626;18.866;2023-08-07T13:33:49;0.40;;;0.10;;
58071;SDS011;60383;46.626;18.866;2023-08-07T13:36:15;0.10;;;0.10;;
58071;SDS011;60383;46.626;18.866;2023-08-07T13:38:40;0.20;;;0.20;;
58071;SDS011;60383;46.626;18.866;2023-08-07T13:41:06;0.10;;;0.10;;
58071;SDS011;60383;46.626;18.866;2023-08-07T13:43:32;0.10;;;0.10;;
58071;SDS011;60383;46.626;18.866;2023-08-07T13:45:58;0.10;;;0.10;;
58071;SDS011;60383;46.626;18.866;2023-08-07T13:48:23;1.00;;;0.10;;
58071;SDS011;60383;46.626;18.866;2023-08-07T13:50:52;0.10;;;0.10;;
58071;SDS011;60383;46.626;18.866;2023-08-07T13:53:18;0.10;;;0.10;;
58071;SDS011;60383;46.626;18.866;2023-08-07T13:55:44;0.20;;;0.20;;
58071;SDS011;60383;46.626;18.866;2023-08-07T13:58:11;0.10;;;0.10;;
58071;SDS011;60383;46.626;18.866;2023-08-07T14:00:40;0.13;;;0.10;;
58071;SDS011;60383;46.626;18.866;2023-08-07T14:03:06;0.20;;;0.10;;
58071;SDS011;60383;46.626;18.866;2023-08-07T14:05:33;0.10;;;0.10;;
58071;SDS011;60383;46.626;18.866;2023-08-07T14:07:59;0.10;;;0.10;;
58071;SDS011;60383;46.626;18.866;2023-08-07T14:10:24;0.10;;;0.10;;
58071;SDS011;60383;46.626;18.866;2023-08-07T14:12:50;0.10;;;0.10;;
58071;SDS011;60383;46.626;18.866;2023-08-07T14:15:15;0.32;;;0.10;;
58071;SDS011;60383;46.626;18.866;2023-08-07T14:17:41;0.63;;;0.10;;
58071;SDS011;60383;46.626;18.866;2023-08-07T14:20:06;0.90;;;0.10;;
58071;SDS011;60383;46.626;18.866;2023-08-07T14:22:33;0.43;;;0.10;;
58071;SDS011;60383;46.626;18.866;2023-08-07T14:25:01;0.10;;;0.10;;
58071;SDS011;60383;46.626;18.866;2023-08-07T14:27:28;0.13;;;0.13;;
58071;SDS011;60383;46.626;18.866;2023-08-07T14:29:53;0.10;;;0.10;;
58071;SDS011;60383;46.626;18.866;2023-08-07T14:32:19;0.00;;;0.00;;
58071;SDS011;60383;46.626;18.866;2023-08-07T14:34:44;0.47;;;0.10;;
58071;SDS011;60383;46.626;18.866;2023-08-07T14:37:12;0.10;;;0.10;;
58071;SDS011;60383;46.626;18.866;2023-08-07T14:39:38;0.10;;;0.10;;